createdAt,value
2023-05-25T00:02:15.339Z,98024.50
2023-05-25T00:04:43.287Z,98019.50
2023-05-25T00:07:10.995Z,98025.03
2023-05-25T00:09:38.611Z,98021.53
2023-05-25T00:12:07.347Z,98026.06
2023-05-25T00:14:34.938Z,98024.53
2023-05-25T00:17:04.303Z,98022.03
2023-05-25T00:19:34.599Z,98017.69
2023-05-25T00:22:02.456Z,98020.53
2023-05-25T00:24:30.976Z,98018.22
2023-05-25T00:26:58.783Z,98017.56
2023-05-25T00:29:26.778Z,98013.56
2023-05-25T00:31:54.574Z,98013.44
2023-05-25T00:34:22.623Z,98004.91
2023-05-25T00:36:50.400Z,98006.94
2023-05-25T00:39:21.703Z,98011.63
2023-05-25T00:41:50.020Z,98016.50
2023-05-25T00:44:21.472Z,98010.00
2023-05-25T00:46:52.142Z,98015.03
2023-05-25T00:49:23.179Z,98010.38
2023-05-25T00:51:52.967Z,98012.56
2023-05-25T00:54:20.611Z,98012.41
2023-05-25T00:56:57.528Z,98015.44
2023-05-25T00:59:44.495Z,98023.31
2023-05-25T01:02:16.996Z,98012.28
2023-05-25T01:04:59.649Z,98012.00
2023-05-25T01:07:31.044Z,98015.66
2023-05-25T01:10:04.786Z,98010.16
2023-05-25T01:12:39.232Z,98004.47
2023-05-25T01:15:09.116Z,98010.84
2023-05-25T01:17:38.229Z,98003.50
2023-05-25T01:20:13.188Z,98002.81
2023-05-25T01:22:55.534Z,98005.00
2023-05-25T01:25:40.103Z,98010.00
2023-05-25T01:28:26.533Z,98007.16
2023-05-25T01:30:57.343Z,98006.34
2023-05-25T01:33:26.249Z,98002.81
2023-05-25T01:35:54.199Z,97997.13
2023-05-25T01:38:21.828Z,98004.16
2023-05-25T01:40:49.374Z,98002.97
2023-05-25T01:43:17.394Z,98011.31
2023-05-25T01:45:45.154Z,98008.31
2023-05-25T01:48:31.622Z,98007.50
2023-05-25T01:51:15.461Z,98012.97
2023-05-25T01:53:51.631Z,98007.31
2023-05-25T01:56:21.526Z,98009.63
2023-05-25T01:58:51.668Z,98008.25
2023-05-25T02:01:22.650Z,98003.59
2023-05-25T02:03:51.194Z,98010.28
2023-05-25T02:06:19.031Z,98006.56
2023-05-25T02:08:46.635Z,98011.09
2023-05-25T02:11:14.786Z,98010.06
2023-05-25T02:13:42.621Z,97999.22
2023-05-25T02:16:10.288Z,97998.38
2023-05-25T02:18:37.898Z,97996.38
2023-05-25T02:21:05.501Z,97993.03
2023-05-25T02:23:33.059Z,97994.88
2023-05-25T02:26:00.614Z,97985.34
2023-05-25T02:28:28.792Z,97988.00
2023-05-25T02:30:57.826Z,97977.34
2023-05-25T02:33:25.670Z,97982.56
2023-05-25T02:35:53.876Z,97983.06
2023-05-25T02:38:21.421Z,97980.25
2023-05-25T02:40:49.068Z,97981.59
2023-05-25T02:43:16.621Z,97980.78
2023-05-25T02:45:44.820Z,97984.25
2023-05-25T02:48:13.367Z,97987.28
2023-05-25T02:50:42.898Z,97983.13
2023-05-25T02:53:14.078Z,97985.63
2023-05-25T02:55:43.482Z,97991.47
2023-05-25T02:58:16.609Z,97998.97
2023-05-25T03:00:55.353Z,98000.00
2023-05-25T03:03:22.964Z,98004.00
2023-05-25T03:05:51.612Z,98002.31
2023-05-25T03:08:19.439Z,97999.84
2023-05-25T03:10:46.972Z,98006.50
2023-05-25T03:13:14.762Z,97999.66
2023-05-25T03:15:42.574Z,98009.84
2023-05-25T03:18:11.586Z,98005.53
2023-05-25T03:20:41.437Z,98008.19
2023-05-25T03:23:09.028Z,98003.69
2023-05-25T03:25:37.497Z,98009.53
2023-05-25T03:28:05.742Z,98000.50
2023-05-25T03:30:33.437Z,98007.34
2023-05-25T03:33:01.135Z,98012.19
2023-05-25T03:35:34.214Z,98001.81
2023-05-25T03:38:02.051Z,97998.31
2023-05-25T03:40:29.697Z,98006.69
2023-05-25T03:42:57.300Z,98011.19
2023-05-25T03:45:24.880Z,98006.50
2023-05-25T03:47:52.437Z,98009.00
2023-05-25T03:50:21.711Z,98010.34
2023-05-25T03:52:49.421Z,98015.19
2023-05-25T03:55:17.778Z,98019.03
2023-05-25T03:57:45.995Z,98021.88
2023-05-25T04:00:14.547Z,98028.22
2023-05-25T04:02:43.591Z,98040.22
2023-05-25T04:05:11.188Z,98037.53
2023-05-25T04:07:38.794Z,98032.34
2023-05-25T04:10:07.560Z,98039.38
2023-05-25T04:12:35.178Z,98035.00
2023-05-25T04:15:04.182Z,98043.53
2023-05-25T04:17:35.802Z,98039.69
2023-05-25T04:20:05.246Z,98048.38
2023-05-25T04:22:33.537Z,98045.25
2023-05-25T04:25:02.255Z,98050.41
2023-05-25T04:27:29.813Z,98048.72
2023-05-25T04:29:58.785Z,98054.91
2023-05-25T04:32:57.551Z,98053.09
2023-05-25T04:35:37.708Z,98052.22
2023-05-25T04:38:07.013Z,98046.06
2023-05-25T04:40:35.549Z,98052.56
2023-05-25T04:43:05.082Z,98042.22
2023-05-25T04:45:33.296Z,98046.88
2023-05-25T04:48:03.017Z,98047.41
2023-05-25T04:50:30.745Z,98048.22
2023-05-25T04:52:58.282Z,98051.91
2023-05-25T04:55:25.987Z,98051.06
2023-05-25T04:57:54.880Z,98058.41
2023-05-25T05:00:22.659Z,98062.91
2023-05-25T05:02:56.600Z,98061.28
2023-05-25T05:05:24.755Z,98061.09
2023-05-25T05:07:54.130Z,98062.75
2023-05-25T05:10:22.593Z,98053.25
2023-05-25T05:12:54.919Z,98060.94
2023-05-25T05:15:22.624Z,98070.63
2023-05-25T05:17:51.050Z,98075.13
2023-05-25T05:20:20.905Z,98078.47
2023-05-25T05:22:49.030Z,98085.66
2023-05-25T05:25:17.892Z,98090.03
2023-05-25T05:27:46.538Z,98081.66
2023-05-25T05:30:19.163Z,98086.03
2023-05-25T05:32:47.100Z,98091.72
2023-05-25T05:35:15.916Z,98092.03
2023-05-25T05:37:47.765Z,98081.84
2023-05-25T05:40:15.538Z,98089.38
2023-05-25T05:42:43.476Z,98091.56
2023-05-25T05:45:13.304Z,98095.88
2023-05-25T05:47:40.965Z,98098.75
2023-05-25T05:50:09.278Z,98103.28
2023-05-25T05:52:38.354Z,98114.66
2023-05-25T05:55:06.512Z,98116.97
2023-05-25T05:57:34.469Z,98123.16
2023-05-25T06:00:03.883Z,98127.00
2023-05-25T06:02:31.762Z,98123.16
2023-05-25T06:04:59.566Z,98122.81
2023-05-25T06:07:28.936Z,98121.13
2023-05-25T06:09:57.620Z,98125.47
2023-05-25T06:12:25.376Z,98127.81
2023-05-25T06:14:53.239Z,98131.84
2023-05-25T06:17:21.473Z,98133.00
2023-05-25T06:19:49.967Z,98134.81
2023-05-25T06:22:17.673Z,98142.66
2023-05-25T06:24:45.238Z,98137.28
2023-05-25T06:27:14.342Z,98141.78
2023-05-25T06:29:42.158Z,98138.94
2023-05-25T06:32:10.936Z,98131.91
2023-05-25T06:34:39.534Z,98134.06
2023-05-25T06:37:07.702Z,98139.91
2023-05-25T06:39:36.507Z,98138.38
2023-05-25T06:45:07.615Z,98150.44
2023-05-25T06:47:35.978Z,98141.06
2023-05-25T06:50:04.418Z,98148.56
2023-05-25T06:52:32.064Z,98147.91
2023-05-25T06:54:59.586Z,98151.03
2023-05-25T06:57:27.228Z,98153.91
2023-05-25T06:59:54.773Z,98153.88
2023-05-25T07:02:22.344Z,98154.03
2023-05-25T07:04:49.921Z,98152.69
2023-05-25T07:07:17.472Z,98154.03
2023-05-25T07:09:45.796Z,98157.66
2023-05-25T07:12:14.533Z,98155.59
2023-05-25T07:14:42.064Z,98155.72
2023-05-25T07:17:10.497Z,98153.84
2023-05-25T07:19:38.052Z,98156.66
2023-05-25T07:22:05.960Z,98159.50
2023-05-25T07:24:33.529Z,98160.22
2023-05-25T07:27:02.369Z,98165.78
2023-05-25T07:29:29.912Z,98165.09
2023-05-25T07:31:57.478Z,98166.66
2023-05-25T07:34:27.159Z,98165.31
2023-05-25T07:36:55.607Z,98152.81
2023-05-25T07:39:23.130Z,98147.72
2023-05-25T07:41:50.874Z,98148.75
2023-05-25T07:44:18.435Z,98149.13
2023-05-25T07:46:46.077Z,98153.91
2023-05-25T07:49:16.155Z,98145.78
2023-05-25T07:51:45.609Z,98150.28
2023-05-25T07:54:13.241Z,98165.31
2023-05-25T07:56:40.901Z,98158.59
2023-05-25T07:59:08.529Z,98160.16
2023-05-25T08:01:36.776Z,98160.22
2023-05-25T08:04:04.453Z,98160.47
2023-05-25T08:06:34.351Z,98162.03
2023-05-25T08:09:04.860Z,98156.69
2023-05-25T08:11:32.519Z,98157.41
2023-05-25T08:14:00.560Z,98150.56
2023-05-25T08:16:28.334Z,98155.56
2023-05-25T08:18:56.048Z,98159.84
2023-05-25T08:21:24.702Z,98165.22
2023-05-25T08:23:53.899Z,98160.16
2023-05-25T08:28:53.325Z,98165.22
2023-05-25T08:31:20.972Z,98158.88
2023-05-25T08:33:48.713Z,98158.81
2023-05-25T08:36:16.367Z,98163.50
2023-05-25T08:38:43.898Z,98167.22
2023-05-25T08:41:13.163Z,98165.22
2023-05-25T08:43:42.030Z,98167.22
2023-05-25T08:46:09.920Z,98173.31
2023-05-25T08:48:42.327Z,98171.97
2023-05-25T08:51:16.225Z,98170.75
2023-05-25T08:53:44.921Z,98176.19
2023-05-25T08:56:20.579Z,98175.78
2023-05-25T08:59:15.597Z,98171.66
2023-05-25T09:01:51.244Z,98159.38
2023-05-25T09:04:21.132Z,98159.94
2023-05-25T09:07:05.705Z,98162.72
2023-05-25T09:09:38.643Z,98160.47
2023-05-25T09:12:07.451Z,98165.25
2023-05-25T09:14:37.756Z,98163.44
2023-05-25T09:17:05.598Z,98161.19
2023-05-25T09:19:35.125Z,98166.47
2023-05-25T09:22:15.038Z,98159.25
2023-05-25T09:24:45.299Z,98160.31
2023-05-25T09:27:17.659Z,98165.31
2023-05-25T09:29:52.251Z,98167.25
2023-05-25T09:32:20.181Z,98167.69
2023-05-25T09:34:48.222Z,98174.22
2023-05-25T09:37:19.446Z,98168.44
2023-05-25T09:39:47.926Z,98171.66
2023-05-25T09:42:16.813Z,98168.56
2023-05-25T09:44:44.672Z,98175.69
2023-05-25T09:47:13.923Z,98176.59
2023-05-25T09:49:44.316Z,98182.25
2023-05-25T09:52:13.231Z,98177.13
2023-05-25T09:54:48.280Z,98170.44
2023-05-25T09:57:16.893Z,98171.88
2023-05-25T09:59:45.351Z,98180.78
2023-05-25T10:02:14.487Z,98181.41
2023-05-25T10:04:42.121Z,98181.56
2023-05-25T10:07:09.811Z,98175.34
2023-05-25T10:09:43.021Z,98173.00
2023-05-25T10:12:11.679Z,98175.25
2023-05-25T10:14:40.437Z,98176.44
2023-05-25T10:17:11.473Z,98170.13
2023-05-25T10:19:52.526Z,98167.63
2023-05-25T10:22:36.254Z,98170.88
2023-05-25T10:25:10.263Z,98168.53
2023-05-25T10:27:59.806Z,98159.63
2023-05-25T10:30:27.814Z,98162.75
2023-05-25T10:32:56.942Z,98166.34
2023-05-25T10:35:25.291Z,98164.66
2023-05-25T10:37:54.624Z,98171.34
2023-05-25T10:40:23.372Z,98161.47
2023-05-25T10:42:51.848Z,98162.97
2023-05-25T10:45:20.438Z,98160.25
2023-05-25T10:47:48.720Z,98159.22
2023-05-25T10:50:27.145Z,98160.53
2023-05-25T10:53:12.037Z,98157.41
2023-05-25T10:55:54.622Z,98158.16
2023-05-25T10:58:23.688Z,98173.13
2023-05-25T11:01:08.042Z,98169.56
2023-05-25T11:03:45.266Z,98172.09
2023-05-25T11:06:23.283Z,98168.94
2023-05-25T11:09:02.560Z,98174.94
2023-05-25T11:11:48.626Z,98166.34
2023-05-25T11:14:31.027Z,98164.16
2023-05-25T11:17:18.421Z,98165.34
2023-05-25T11:19:51.093Z,98161.97
2023-05-25T11:22:30.316Z,98165.66
2023-05-25T11:25:00.556Z,98152.91
2023-05-25T11:27:32.196Z,98163.03
2023-05-25T11:30:00.230Z,98161.19
2023-05-25T11:32:29.176Z,98150.72
2023-05-25T11:34:58.230Z,98156.00
2023-05-25T11:37:31.353Z,98158.09
2023-05-25T11:39:59.307Z,98154.47
2023-05-25T11:42:27.707Z,98154.41
2023-05-25T11:44:56.180Z,98154.53
2023-05-25T11:47:25.212Z,98152.00
2023-05-25T11:49:56.308Z,98152.59
2023-05-25T11:52:24.032Z,98145.19
2023-05-25T11:54:53.076Z,98158.59
2023-05-25T11:57:24.696Z,98150.47
2023-05-25T12:00:24.983Z,98156.75
2023-05-25T12:02:53.105Z,98154.06
2023-05-25T12:05:20.940Z,98161.28
2023-05-25T12:07:48.504Z,98151.94
2023-05-25T12:10:16.773Z,98160.47
2023-05-25T12:12:52.317Z,98166.44
2023-05-25T12:15:24.816Z,98163.72
2023-05-25T12:17:54.210Z,98162.88
2023-05-25T12:20:22.539Z,98159.31
2023-05-25T12:22:50.741Z,98149.88
2023-05-25T12:25:24.480Z,98140.66
2023-05-25T12:28:12.718Z,98145.97
2023-05-25T12:30:40.710Z,98149.53
2023-05-25T12:33:08.388Z,98143.28
2023-05-25T12:35:50.446Z,98147.53
2023-05-25T12:38:19.993Z,98145.84
2023-05-25T12:40:47.881Z,98159.34
2023-05-25T12:43:17.495Z,98143.25
2023-05-25T12:45:45.206Z,98147.53
2023-05-25T12:48:12.941Z,98147.88
2023-05-25T12:51:00.072Z,98134.94
2023-05-25T12:53:28.951Z,98141.34
2023-05-25T12:56:04.428Z,98142.50
2023-05-25T12:58:32.153Z,98141.88
2023-05-25T13:01:00.055Z,98139.66
2023-05-25T13:03:27.741Z,98129.13
2023-05-25T13:06:02.296Z,98122.06
2023-05-25T13:08:30.126Z,98135.69
2023-05-25T13:10:57.854Z,98131.16
2023-05-25T13:13:25.440Z,98133.41
2023-05-25T13:15:53.823Z,98130.59
2023-05-25T13:18:21.382Z,98132.50
2023-05-25T13:20:51.756Z,98137.44
2023-05-25T13:23:20.985Z,98133.13
2023-05-25T13:25:48.529Z,98128.63
2023-05-25T13:28:16.111Z,98137.09
2023-05-25T13:30:43.955Z,98135.34
2023-05-25T13:33:11.781Z,98129.88
2023-05-25T13:35:46.316Z,98128.25
2023-05-25T13:38:16.554Z,98127.34
2023-05-25T13:40:45.402Z,98121.56
2023-05-25T13:43:13.195Z,98131.78
2023-05-25T13:45:40.710Z,98123.75
2023-05-25T13:48:08.373Z,98128.63
2023-05-25T13:50:35.937Z,98127.28
2023-05-25T13:53:03.545Z,98128.13
2023-05-25T13:55:31.083Z,98122.13
2023-05-25T13:57:58.646Z,98122.53
2023-05-25T14:00:26.206Z,98116.50
2023-05-25T14:02:54.045Z,98121.28
2023-05-25T14:05:21.861Z,98118.50
2023-05-25T14:07:49.517Z,98124.47
2023-05-25T14:10:17.167Z,98126.66
2023-05-25T14:12:45.103Z,98126.22
2023-05-25T14:15:12.886Z,98122.56
2023-05-25T14:17:40.505Z,98113.34
2023-05-25T14:20:08.614Z,98114.59
2023-05-25T14:22:36.786Z,98115.13
2023-05-25T14:25:05.138Z,98110.66
2023-05-25T14:27:32.697Z,98119.81
2023-05-25T14:30:00.293Z,98114.97
2023-05-25T14:32:27.907Z,98116.69
2023-05-25T14:34:55.504Z,98120.03
2023-05-25T14:37:23.091Z,98116.78
2023-05-25T14:39:50.733Z,98118.56
2023-05-25T14:42:18.729Z,98116.75
2023-05-25T14:44:46.342Z,98122.03
2023-05-25T14:47:14.030Z,98114.38
2023-05-25T14:49:41.601Z,98116.56
2023-05-25T14:52:09.181Z,98120.94
2023-05-25T14:54:37.037Z,98120.66
2023-05-25T14:57:04.949Z,98114.63
2023-05-25T14:59:32.504Z,98120.13
2023-05-25T15:02:00.103Z,98117.44
2023-05-25T15:04:29.822Z,98115.00
2023-05-25T15:06:58.376Z,98120.75
2023-05-25T15:09:25.961Z,98122.97
2023-05-25T15:11:53.537Z,98119.16
2023-05-25T15:14:21.109Z,98108.44
2023-05-25T15:16:48.713Z,98112.53
2023-05-25T15:19:17.702Z,98111.19
2023-05-25T15:21:45.623Z,98115.28
2023-05-25T15:24:16.538Z,98118.06
2023-05-25T15:26:44.113Z,98116.16
2023-05-25T15:29:11.736Z,98119.38
2023-05-25T15:31:39.306Z,98111.72
2023-05-25T15:34:06.918Z,98115.28
2023-05-25T15:36:34.512Z,98114.47
2023-05-25T15:39:02.396Z,98112.25
2023-05-25T15:41:29.950Z,98110.59
2023-05-25T15:44:00.735Z,98114.72
2023-05-25T15:46:28.926Z,98113.09
2023-05-25T15:48:56.690Z,98102.13
2023-05-25T15:51:24.216Z,98097.44
2023-05-25T15:53:52.317Z,98107.31
2023-05-25T15:56:19.846Z,98107.06
2023-05-25T15:58:49.263Z,98110.06
2023-05-25T16:01:16.885Z,98099.09
2023-05-25T16:03:44.837Z,98102.91
2023-05-25T16:06:12.690Z,98104.53
2023-05-25T16:08:40.260Z,98112.44
2023-05-25T16:11:07.805Z,98112.94
2023-05-25T16:13:35.442Z,98109.06
2023-05-25T16:16:03.124Z,98109.03
2023-05-25T16:18:30.766Z,98113.91
2023-05-25T16:20:58.381Z,98106.44
2023-05-25T16:23:26.021Z,98110.47
2023-05-25T16:25:53.637Z,98111.78
2023-05-25T16:28:21.223Z,98103.78
2023-05-25T16:30:48.798Z,98111.13
2023-05-25T16:33:16.389Z,98111.78
2023-05-25T16:35:44.211Z,98117.09
2023-05-25T16:38:11.936Z,98110.97
2023-05-25T16:40:39.535Z,98113.06
2023-05-25T16:43:07.229Z,98109.59
2023-05-25T16:45:34.857Z,98107.03
2023-05-25T16:48:02.482Z,98099.72
2023-05-25T16:50:30.053Z,98099.03
2023-05-25T16:52:57.601Z,98104.09
2023-05-25T16:55:25.443Z,98096.75
2023-05-25T16:57:53.005Z,98104.19
2023-05-25T17:00:21.040Z,98096.63
2023-05-25T17:02:48.719Z,98102.44
2023-05-25T17:05:16.391Z,98105.94
2023-05-25T17:07:43.952Z,98103.22
2023-05-25T17:10:11.767Z,98101.53
2023-05-25T17:12:39.949Z,98100.56
2023-05-25T17:15:08.370Z,98106.56
2023-05-25T17:17:35.959Z,98105.91
2023-05-25T17:20:04.113Z,98108.78
2023-05-25T17:22:31.726Z,98107.59
2023-05-25T17:24:59.562Z,98103.66
2023-05-25T17:27:27.140Z,98102.94
2023-05-25T17:29:54.781Z,98108.81
2023-05-25T17:32:22.379Z,98100.28
2023-05-25T17:34:49.905Z,98102.44
2023-05-25T17:37:19.026Z,98100.00
2023-05-25T17:39:46.709Z,98097.66
2023-05-25T17:42:14.384Z,98104.38
2023-05-25T17:44:42.450Z,98109.97
2023-05-25T17:47:11.303Z,98106.09
2023-05-25T17:49:39.075Z,98104.03
2023-05-25T17:52:07.534Z,98104.84
2023-05-25T17:54:35.554Z,98101.97
2023-05-25T17:57:03.485Z,98108.06
2023-05-25T17:59:31.087Z,98101.34
2023-05-25T18:01:58.819Z,98103.44
2023-05-25T18:04:26.483Z,98104.63
2023-05-25T18:06:54.010Z,98111.53
2023-05-25T18:09:21.791Z,98111.56
2023-05-25T18:11:49.359Z,98119.28
2023-05-25T18:14:16.944Z,98123.78
2023-05-25T18:16:44.908Z,98117.91
2023-05-25T18:19:14.677Z,98119.81
2023-05-25T18:21:42.248Z,98123.72
2023-05-25T18:24:10.377Z,98126.81
2023-05-25T18:26:38.033Z,98124.69
2023-05-25T18:29:05.630Z,98123.97
2023-05-25T18:31:33.396Z,98119.13
2023-05-25T18:34:01.114Z,98126.13
2023-05-25T18:36:28.860Z,98133.59
2023-05-25T18:38:56.433Z,98122.22
2023-05-25T18:41:25.196Z,98134.06
2023-05-25T18:43:52.746Z,98135.59
2023-05-25T18:46:20.648Z,98134.19
2023-05-25T18:48:48.284Z,98140.28
2023-05-25T18:51:17.068Z,98140.63
2023-05-25T18:53:44.868Z,98137.16
2023-05-25T18:56:12.393Z,98138.69
2023-05-25T18:58:39.999Z,98132.91
2023-05-25T19:01:07.566Z,98136.31
2023-05-25T19:03:35.411Z,98136.78
2023-05-25T19:06:03.048Z,98134.53
2023-05-25T19:08:30.638Z,98136.66
2023-05-25T19:10:58.158Z,98130.03
2023-05-25T19:13:25.715Z,98138.88
2023-05-25T19:15:53.256Z,98145.00
2023-05-25T19:18:20.918Z,98139.66
2023-05-25T19:20:48.730Z,98146.59
2023-05-25T19:23:16.468Z,98147.31
2023-05-25T19:25:44.238Z,98152.38
2023-05-25T19:28:12.053Z,98158.72
2023-05-25T19:30:39.597Z,98160.22
2023-05-25T19:33:07.213Z,98152.34
2023-05-25T19:35:34.804Z,98156.19
2023-05-25T19:38:02.545Z,98160.69
2023-05-25T19:40:30.713Z,98156.75
2023-05-25T19:42:58.270Z,98156.63
2023-05-25T19:45:26.000Z,98167.31
2023-05-25T19:47:54.391Z,98173.41
2023-05-25T19:50:21.979Z,98172.22
2023-05-25T19:52:49.602Z,98169.94
2023-05-25T19:55:17.232Z,98173.56
2023-05-25T19:57:44.810Z,98170.91
2023-05-25T20:00:21.145Z,98174.28
2023-05-25T20:02:53.876Z,98172.88
2023-05-25T20:05:21.592Z,98178.94
2023-05-25T20:07:50.872Z,98174.41
2023-05-25T20:10:18.700Z,98178.81
2023-05-25T20:12:46.848Z,98179.94
2023-05-25T20:15:14.474Z,98185.22
2023-05-25T20:17:42.041Z,98183.16
2023-05-25T20:20:10.062Z,98177.78
2023-05-25T20:22:37.687Z,98184.31
2023-05-25T20:25:05.674Z,98182.09
2023-05-25T20:27:33.214Z,98181.09
2023-05-25T20:30:00.756Z,98184.47
2023-05-25T20:32:28.406Z,98177.81
2023-05-25T20:34:57.221Z,98183.28
2023-05-25T20:37:24.797Z,98193.72
2023-05-25T20:39:52.328Z,98182.50
2023-05-25T20:42:19.915Z,98187.47
2023-05-25T20:44:47.447Z,98189.56
2023-05-25T20:47:15.010Z,98188.34
2023-05-25T20:49:42.599Z,98189.84
2023-05-25T20:52:10.170Z,98189.44
2023-05-25T20:54:41.636Z,98193.63
2023-05-25T20:57:09.208Z,98200.53
2023-05-25T20:59:37.083Z,98199.31
2023-05-25T21:02:04.935Z,98201.81
2023-05-25T21:04:32.660Z,98197.25
2023-05-25T21:07:00.623Z,98198.94
2023-05-25T21:09:28.221Z,98191.50
2023-05-25T21:11:55.812Z,98197.31
2023-05-25T21:14:23.375Z,98203.38
2023-05-25T21:16:51.284Z,98198.81
2023-05-25T21:19:18.889Z,98215.28
2023-05-25T21:21:46.430Z,98216.34
2023-05-25T21:24:13.965Z,98214.44
2023-05-25T21:26:41.671Z,98218.22
2023-05-25T21:29:09.264Z,98209.50
2023-05-25T21:31:36.935Z,98210.34
2023-05-25T21:34:04.552Z,98210.13
2023-05-25T21:36:32.426Z,98213.47
2023-05-25T21:39:00.032Z,98212.44
2023-05-25T21:41:28.447Z,98212.22
2023-05-25T21:43:55.985Z,98214.50
2023-05-25T21:46:23.521Z,98221.38
2023-05-25T21:48:51.165Z,98216.81
2023-05-25T21:51:18.685Z,98223.69
2023-05-25T21:53:46.297Z,98232.19
2023-05-25T21:56:13.834Z,98230.72
2023-05-25T21:58:41.354Z,98233.41
2023-05-25T22:01:08.964Z,98233.03
2023-05-25T22:03:36.546Z,98231.13
2023-05-25T22:06:04.434Z,98237.94
2023-05-25T22:08:31.999Z,98242.72
2023-05-25T22:10:59.523Z,98241.28
2023-05-25T22:13:27.089Z,98240.22
2023-05-25T22:15:54.635Z,98240.44
2023-05-25T22:18:22.184Z,98239.81
2023-05-25T22:20:49.914Z,98245.41
2023-05-25T22:23:17.668Z,98246.88
2023-05-25T22:25:45.579Z,98242.69
2023-05-25T22:28:14.363Z,98242.06
2023-05-25T22:30:42.356Z,98246.63
2023-05-25T22:33:10.162Z,98241.63
2023-05-25T22:35:37.889Z,98244.34
2023-05-25T22:38:05.667Z,98245.78
2023-05-25T22:40:33.243Z,98251.59
2023-05-25T22:43:00.886Z,98249.94
2023-05-25T22:45:28.508Z,98253.06
2023-05-25T22:47:56.079Z,98250.34
2023-05-25T22:50:23.630Z,98254.91
2023-05-25T22:52:51.188Z,98255.75
2023-05-25T22:55:18.737Z,98252.00
2023-05-25T22:57:46.356Z,98255.75
2023-05-25T23:00:14.209Z,98251.38
2023-05-25T23:02:41.881Z,98252.41
2023-05-25T23:05:10.964Z,98255.31
2023-05-25T23:07:38.670Z,98249.06
2023-05-25T23:10:08.000Z,98260.09
2023-05-25T23:12:35.613Z,98260.47
2023-05-25T23:15:04.017Z,98265.44
2023-05-25T23:17:32.533Z,98267.31
2023-05-25T23:20:00.195Z,98262.72
2023-05-25T23:22:28.097Z,98261.47
2023-05-25T23:24:55.673Z,98261.00
2023-05-25T23:27:23.213Z,98260.97
2023-05-25T23:29:50.766Z,98266.53
2023-05-25T23:32:18.385Z,98261.09
2023-05-25T23:34:45.972Z,98269.59
2023-05-25T23:37:13.556Z,98261.69
2023-05-25T23:39:41.090Z,98263.34
2023-05-25T23:42:08.638Z,98265.22
2023-05-25T23:44:36.232Z,98267.91
2023-05-25T23:47:05.681Z,98264.38
2023-05-25T23:49:33.275Z,98266.91
2023-05-25T23:52:01.457Z,98270.78
2023-05-25T23:54:28.999Z,98272.41
2023-05-25T23:56:56.535Z,98269.28
2023-05-25T23:59:24.107Z,98273.00
